sensor_id;sensor_type;location;lat;lon;timestamp;P1;durP1;ratioP1;P2;durP2;ratioP2
66609;SDS011;53468;48.276;14.416;2022-09-01T00:05:32;10.23;;;5.38;;
66609;SDS011;53468;48.276;14.416;2022-09-01T00:11:06;8.73;;;5.05;;
66609;SDS011;53468;48.276;14.416;2022-09-01T00:16:39;7.32;;;3.55;;
66609;SDS011;53468;48.276;14.416;2022-09-01T00:22:11;10.43;;;4.68;;
66609;SDS011;53468;48.276;14.416;2022-09-01T00:27:45;9.02;;;5.60;;
66609;SDS011;53468;48.276;14.416;2022-09-01T00:33:17;7.65;;;4.65;;
66609;SDS011;53468;48.276;14.416;2022-09-01T00:38:49;7.18;;;4.30;;
66609;SDS011;53468;48.276;14.416;2022-09-01T00:44:24;7.50;;;3.95;;
66609;SDS011;53468;48.276;14.416;2022-09-01T00:49:57;7.97;;;5.07;;
66609;SDS011;53468;48.276;14.416;2022-09-01T00:55:30;7.07;;;4.18;;
66609;SDS011;53468;48.276;14.416;2022-09-01T01:01:07;9.13;;;5.03;;
66609;SDS011;53468;48.276;14.416;2022-09-01T01:06:41;6.88;;;4.65;;
66609;SDS011;53468;48.276;14.416;2022-09-01T01:12:18;7.93;;;4.75;;
66609;SDS011;53468;48.276;14.416;2022-09-01T01:17:54;7.75;;;5.35;;
66609;SDS011;53468;48.276;14.416;2022-09-01T01:23:29;10.73;;;5.32;;
66609;SDS011;53468;48.276;14.416;2022-09-01T01:29:10;7.20;;;4.60;;
66609;SDS011;53468;48.276;14.416;2022-09-01T01:34:42;6.47;;;4.82;;
66609;SDS011;53468;48.276;14.416;2022-09-01T01:40:17;16.40;;;7.60;;
66609;SDS011;53468;48.276;14.416;2022-09-01T01:45:54;13.20;;;5.75;;
66609;SDS011;53468;48.276;14.416;2022-09-01T01:51:31;6.75;;;5.05;;
66609;SDS011;53468;48.276;14.416;2022-09-01T01:57:04;11.85;;;5.47;;
66609;SDS011;53468;48.276;14.416;2022-09-01T02:02:38;6.28;;;4.78;;
66609;SDS011;53468;48.276;14.416;2022-09-01T02:08:11;7.97;;;4.93;;
66609;SDS011;53468;48.276;14.416;2022-09-01T02:13:44;9.20;;;5.28;;
66609;SDS011;53468;48.276;14.416;2022-09-01T02:19:20;8.23;;;4.97;;
66609;SDS011;53468;48.276;14.416;2022-09-01T02:24:52;7.90;;;5.38;;
66609;SDS011;53468;48.276;14.416;2022-09-01T02:30:25;9.70;;;5.40;;
66609;SDS011;53468;48.276;14.416;2022-09-01T02:36:00;8.60;;;5.65;;
66609;SDS011;53468;48.276;14.416;2022-09-01T02:41:35;8.35;;;6.30;;
66609;SDS011;53468;48.276;14.416;2022-09-01T02:47:08;8.85;;;7.10;;
66609;SDS011;53468;48.276;14.416;2022-09-01T02:52:42;7.32;;;5.53;;
66609;SDS011;53468;48.276;14.416;2022-09-01T02:58:17;8.30;;;6.47;;
66609;SDS011;53468;48.276;14.416;2022-09-01T03:03:51;10.10;;;6.45;;
66609;SDS011;53468;48.276;14.416;2022-09-01T03:09:27;8.10;;;5.93;;
66609;SDS011;53468;48.276;14.416;2022-09-01T03:14:59;10.57;;;6.53;;
66609;SDS011;53468;48.276;14.416;2022-09-01T03:20:33;7.93;;;6.43;;
66609;SDS011;53468;48.276;14.416;2022-09-01T03:26:10;8.50;;;5.85;;
66609;SDS011;53468;48.276;14.416;2022-09-01T03:31:42;8.45;;;5.82;;
66609;SDS011;53468;48.276;14.416;2022-09-01T03:37:15;7.68;;;5.93;;
66609;SDS011;53468;48.276;14.416;2022-09-01T03:42:51;10.10;;;6.07;;
66609;SDS011;53468;48.276;14.416;2022-09-01T03:48:25;7.75;;;6.13;;
66609;SDS011;53468;48.276;14.416;2022-09-01T03:53:58;12.40;;;6.38;;
66609;SDS011;53468;48.276;14.416;2022-09-01T03:59:32;10.63;;;6.63;;
66609;SDS011;53468;48.276;14.416;2022-09-01T04:05:05;13.10;;;7.88;;
66609;SDS011;53468;48.276;14.416;2022-09-01T04:10:41;12.82;;;7.90;;
66609;SDS011;53468;48.276;14.416;2022-09-01T04:16:21;7.43;;;6.47;;
66609;SDS011;53468;48.276;14.416;2022-09-01T04:22:08;7.38;;;6.15;;
66609;SDS011;53468;48.276;14.416;2022-09-01T04:27:43;10.25;;;6.00;;
66609;SDS011;53468;48.276;14.416;2022-09-01T04:33:18;9.10;;;6.40;;
66609;SDS011;53468;48.276;14.416;2022-09-01T04:38:53;10.10;;;7.15;;
66609;SDS011;53468;48.276;14.416;2022-09-01T04:44:26;14.65;;;8.50;;
66609;SDS011;53468;48.276;14.416;2022-09-01T04:50:00;10.10;;;7.00;;
66609;SDS011;53468;48.276;14.416;2022-09-01T04:55:42;10.57;;;6.97;;
66609;SDS011;53468;48.276;14.416;2022-09-01T05:01:16;9.45;;;7.22;;
66609;SDS011;53468;48.276;14.416;2022-09-01T05:06:53;11.13;;;8.05;;
66609;SDS011;53468;48.276;14.416;2022-09-01T05:12:29;11.40;;;7.05;;
66609;SDS011;53468;48.276;14.416;2022-09-01T05:18:01;9.45;;;7.35;;
66609;SDS011;53468;48.276;14.416;2022-09-01T05:23:40;10.80;;;7.05;;
66609;SDS011;53468;48.276;14.416;2022-09-01T05:29:13;8.95;;;6.22;;
66609;SDS011;53468;48.276;14.416;2022-09-01T05:34:46;7.32;;;5.68;;
66609;SDS011;53468;48.276;14.416;2022-09-01T05:40:23;11.45;;;6.72;;
66609;SDS011;53468;48.276;14.416;2022-09-01T05:45:55;7.15;;;5.95;;
66609;SDS011;53468;48.276;14.416;2022-09-01T05:51:28;9.52;;;6.18;;
66609;SDS011;53468;48.276;14.416;2022-09-01T05:57:05;7.07;;;5.13;;
66609;SDS011;53468;48.276;14.416;2022-09-01T06:02:39;8.27;;;5.00;;
66609;SDS011;53468;48.276;14.416;2022-09-01T06:08:11;8.50;;;5.43;;
66609;SDS011;53468;48.276;14.416;2022-09-01T06:13:46;7.53;;;5.25;;
66609;SDS011;53468;48.276;14.416;2022-09-01T06:19:21;8.48;;;5.25;;
66609;SDS011;53468;48.276;14.416;2022-09-01T06:24:53;8.38;;;5.20;;
66609;SDS011;53468;48.276;14.416;2022-09-01T06:30:27;9.90;;;5.43;;
66609;SDS011;53468;48.276;14.416;2022-09-01T06:36:00;8.40;;;4.63;;
66609;SDS011;53468;48.276;14.416;2022-09-01T06:41:33;6.18;;;4.38;;
66609;SDS011;53468;48.276;14.416;2022-09-01T06:47:08;4.70;;;3.33;;
66609;SDS011;53468;48.276;14.416;2022-09-01T06:52:40;8.27;;;4.50;;
66609;SDS011;53468;48.276;14.416;2022-09-01T06:58:12;7.57;;;4.32;;
66609;SDS011;53468;48.276;14.416;2022-09-01T07:03:48;5.82;;;4.18;;
66609;SDS011;53468;48.276;14.416;2022-09-01T07:09:21;5.38;;;3.47;;
66609;SDS011;53468;48.276;14.416;2022-09-01T07:14:54;4.28;;;3.25;;
66609;SDS011;53468;48.276;14.416;2022-09-01T07:20:29;3.65;;;2.65;;
66609;SDS011;53468;48.276;14.416;2022-09-01T07:26:10;3.50;;;2.60;;
66609;SDS011;53468;48.276;14.416;2022-09-01T07:31:47;5.47;;;3.17;;
66609;SDS011;53468;48.276;14.416;2022-09-01T07:37:21;3.15;;;2.75;;
66609;SDS011;53468;48.276;14.416;2022-09-01T07:42:53;5.10;;;2.60;;
66609;SDS011;53468;48.276;14.416;2022-09-01T07:48:27;4.25;;;2.40;;
66609;SDS011;53468;48.276;14.416;2022-09-01T07:54:00;4.10;;;2.72;;
66609;SDS011;53468;48.276;14.416;2022-09-01T07:59:32;4.93;;;2.88;;
66609;SDS011;53468;48.276;14.416;2022-09-01T08:05:05;4.35;;;2.97;;
66609;SDS011;53468;48.276;14.416;2022-09-01T08:10:41;3.95;;;2.58;;
66609;SDS011;53468;48.276;14.416;2022-09-01T08:16:15;3.78;;;2.90;;
66609;SDS011;53468;48.276;14.416;2022-09-01T08:21:47;3.78;;;2.40;;
66609;SDS011;53468;48.276;14.416;2022-09-01T08:27:21;5.10;;;2.92;;
66609;SDS011;53468;48.276;14.416;2022-09-01T08:32:53;5.88;;;3.15;;
66609;SDS011;53468;48.276;14.416;2022-09-01T08:38:26;3.47;;;2.60;;
66609;SDS011;53468;48.276;14.416;2022-09-01T08:44:02;3.47;;;2.05;;
66609;SDS011;53468;48.276;14.416;2022-09-01T08:49:43;3.05;;;2.20;;
66609;SDS011;53468;48.276;14.416;2022-09-01T08:55:18;3.22;;;1.98;;
66609;SDS011;53468;48.276;14.416;2022-09-01T09:00:58;4.43;;;1.65;;
66609;SDS011;53468;48.276;14.416;2022-09-01T09:06:35;4.13;;;1.67;;
66609;SDS011;53468;48.276;14.416;2022-09-01T09:12:22;3.80;;;1.58;;
66609;SDS011;53468;48.276;14.416;2022-09-01T09:18:11;5.30;;;2.10;;
66609;SDS011;53468;48.276;14.416;2022-09-01T09:23:49;2.75;;;1.67;;
66609;SDS011;53468;48.276;14.416;2022-09-01T09:29:26;2.20;;;1.52;;
66609;SDS011;53468;48.276;14.416;2022-09-01T09:35:00;3.58;;;1.50;;
66609;SDS011;53468;48.276;14.416;2022-09-01T09:40:54;3.42;;;1.52;;
66609;SDS011;53468;48.276;14.416;2022-09-01T09:46:33;3.65;;;1.60;;
66609;SDS011;53468;48.276;14.416;2022-09-01T09:52:13;5.57;;;1.80;;
66609;SDS011;53468;48.276;14.416;2022-09-01T09:57:48;3.15;;;1.50;;
66609;SDS011;53468;48.276;14.416;2022-09-01T10:03:32;5.00;;;1.33;;
66609;SDS011;53468;48.276;14.416;2022-09-01T10:09:10;2.03;;;1.05;;
66609;SDS011;53468;48.276;14.416;2022-09-01T10:14:47;2.78;;;1.25;;
66609;SDS011;53468;48.276;14.416;2022-09-01T10:26:52;3.25;;;1.13;;
66609;SDS011;53468;48.276;14.416;2022-09-01T10:32:28;2.65;;;1.05;;
66609;SDS011;53468;48.276;14.416;2022-09-01T10:38:05;3.10;;;1.35;;
66609;SDS011;53468;48.276;14.416;2022-09-01T10:43:41;3.10;;;1.30;;
66609;SDS011;53468;48.276;14.416;2022-09-01T10:55:28;2.85;;;1.33;;
66609;SDS011;53468;48.276;14.416;2022-09-01T11:01:18;1.85;;;1.13;;
66609;SDS011;53468;48.276;14.416;2022-09-01T11:07:45;2.13;;;1.17;;
66609;SDS011;53468;48.276;14.416;2022-09-01T11:19:23;2.65;;;1.17;;
66609;SDS011;53468;48.276;14.416;2022-09-01T11:25:05;1.63;;;1.00;;
66609;SDS011;53468;48.276;14.416;2022-09-01T11:37:03;2.55;;;1.05;;
66609;SDS011;53468;48.276;14.416;2022-09-01T11:42:44;3.75;;;1.08;;
66609;SDS011;53468;48.276;14.416;2022-09-01T11:48:19;3.40;;;1.35;;
66609;SDS011;53468;48.276;14.416;2022-09-01T11:53:53;2.15;;;1.17;;
66609;SDS011;53468;48.276;14.416;2022-09-01T11:59:31;1.92;;;0.90;;
66609;SDS011;53468;48.276;14.416;2022-09-01T12:05:22;2.00;;;1.00;;
66609;SDS011;53468;48.276;14.416;2022-09-01T12:11:04;2.08;;;0.90;;
66609;SDS011;53468;48.276;14.416;2022-09-01T12:16:38;1.73;;;1.03;;
66609;SDS011;53468;48.276;14.416;2022-09-01T12:22:12;3.83;;;1.27;;
66609;SDS011;53468;48.276;14.416;2022-09-01T12:27:48;1.73;;;0.80;;
66609;SDS011;53468;48.276;14.416;2022-09-01T12:33:21;2.97;;;1.10;;
66609;SDS011;53468;48.276;14.416;2022-09-01T12:38:55;2.55;;;1.20;;
66609;SDS011;53468;48.276;14.416;2022-09-01T12:44:49;1.73;;;0.90;;
66609;SDS011;53468;48.276;14.416;2022-09-01T12:56:25;4.10;;;1.10;;
66609;SDS011;53468;48.276;14.416;2022-09-01T13:08:06;4.38;;;1.27;;
66609;SDS011;53468;48.276;14.416;2022-09-01T13:13:39;3.03;;;1.00;;
66609;SDS011;53468;48.276;14.416;2022-09-01T13:19:12;1.73;;;1.08;;
66609;SDS011;53468;48.276;14.416;2022-09-01T13:24:44;0.70;;;0.50;;
66609;SDS011;53468;48.276;14.416;2022-09-01T13:30:18;2.53;;;0.85;;
66609;SDS011;53468;48.276;14.416;2022-09-01T13:35:53;2.92;;;0.90;;
66609;SDS011;53468;48.276;14.416;2022-09-01T13:41:25;2.30;;;0.90;;
66609;SDS011;53468;48.276;14.416;2022-09-01T13:46:58;2.03;;;0.80;;
66609;SDS011;53468;48.276;14.416;2022-09-01T13:52:31;2.85;;;0.68;;
66609;SDS011;53468;48.276;14.416;2022-09-01T13:58:03;4.10;;;0.70;;
66609;SDS011;53468;48.276;14.416;2022-09-01T14:03:36;4.53;;;2.25;;
66609;SDS011;53468;48.276;14.416;2022-09-01T14:09:09;1.35;;;0.70;;
66609;SDS011;53468;48.276;14.416;2022-09-01T14:14:41;3.88;;;0.85;;
66609;SDS011;53468;48.276;14.416;2022-09-01T14:20:14;1.98;;;0.80;;
66609;SDS011;53468;48.276;14.416;2022-09-01T14:25:49;3.00;;;0.90;;
66609;SDS011;53468;48.276;14.416;2022-09-01T14:31:22;3.83;;;0.90;;
66609;SDS011;53468;48.276;14.416;2022-09-01T14:36:54;2.15;;;1.10;;
66609;SDS011;53468;48.276;14.416;2022-09-01T14:42:28;1.45;;;0.73;;
66609;SDS011;53468;48.276;14.416;2022-09-01T14:48:00;5.40;;;1.40;;
66609;SDS011;53468;48.276;14.416;2022-09-01T14:53:34;2.45;;;1.08;;
66609;SDS011;53468;48.276;14.416;2022-09-01T14:59:08;2.40;;;0.90;;
66609;SDS011;53468;48.276;14.416;2022-09-01T15:04:40;2.03;;;1.10;;
66609;SDS011;53468;48.276;14.416;2022-09-01T15:10:13;3.35;;;1.02;;
66609;SDS011;53468;48.276;14.416;2022-09-01T15:15:49;1.58;;;1.00;;
66609;SDS011;53468;48.276;14.416;2022-09-01T15:21:23;2.42;;;1.00;;
66609;SDS011;53468;48.276;14.416;2022-09-01T15:26:57;3.17;;;0.80;;
66609;SDS011;53468;48.276;14.416;2022-09-01T15:32:30;2.60;;;1.05;;
66609;SDS011;53468;48.276;14.416;2022-09-01T15:38:03;3.95;;;1.20;;
66609;SDS011;53468;48.276;14.416;2022-09-01T15:43:36;3.05;;;1.10;;
66609;SDS011;53468;48.276;14.416;2022-09-01T15:49:10;5.55;;;1.10;;
66609;SDS011;53468;48.276;14.416;2022-09-01T15:54:42;1.67;;;0.85;;
66609;SDS011;53468;48.276;14.416;2022-09-01T16:00:15;2.35;;;1.15;;
66609;SDS011;53468;48.276;14.416;2022-09-01T16:05:49;1.48;;;0.93;;
66609;SDS011;53468;48.276;14.416;2022-09-01T16:11:21;1.80;;;0.98;;
66609;SDS011;53468;48.276;14.416;2022-09-01T16:16:58;1.70;;;1.00;;
66609;SDS011;53468;48.276;14.416;2022-09-01T16:22:36;4.82;;;1.00;;
66609;SDS011;53468;48.276;14.416;2022-09-01T16:28:17;3.42;;;1.35;;
66609;SDS011;53468;48.276;14.416;2022-09-01T16:33:57;3.10;;;0.95;;
66609;SDS011;53468;48.276;14.416;2022-09-01T16:39:37;3.00;;;1.23;;
66609;SDS011;53468;48.276;14.416;2022-09-01T16:45:16;3.90;;;2.42;;
66609;SDS011;53468;48.276;14.416;2022-09-01T16:51:04;2.60;;;1.20;;
66609;SDS011;53468;48.276;14.416;2022-09-01T16:56:47;2.75;;;1.10;;
66609;SDS011;53468;48.276;14.416;2022-09-01T17:08:19;3.15;;;0.95;;
66609;SDS011;53468;48.276;14.416;2022-09-01T17:13:55;1.38;;;1.02;;
66609;SDS011;53468;48.276;14.416;2022-09-01T17:19:28;2.72;;;1.30;;
66609;SDS011;53468;48.276;14.416;2022-09-01T17:25:01;2.25;;;1.17;;
66609;SDS011;53468;48.276;14.416;2022-09-01T17:30:40;2.05;;;1.20;;
66609;SDS011;53468;48.276;14.416;2022-09-01T17:36:23;2.38;;;1.02;;
66609;SDS011;53468;48.276;14.416;2022-09-01T17:42:05;4.00;;;1.00;;
66609;SDS011;53468;48.276;14.416;2022-09-01T17:47:48;4.00;;;1.15;;
66609;SDS011;53468;48.276;14.416;2022-09-01T17:53:31;2.97;;;1.23;;
66609;SDS011;53468;48.276;14.416;2022-09-01T17:59:13;2.10;;;1.20;;
66609;SDS011;53468;48.276;14.416;2022-09-01T18:04:52;5.00;;;1.20;;
66609;SDS011;53468;48.276;14.416;2022-09-01T18:10:33;4.00;;;1.40;;
66609;SDS011;53468;48.276;14.416;2022-09-01T18:16:10;2.67;;;0.90;;
66609;SDS011;53468;48.276;14.416;2022-09-01T18:21:48;4.05;;;1.45;;
66609;SDS011;53468;48.276;14.416;2022-09-01T18:27:25;2.45;;;1.25;;
66609;SDS011;53468;48.276;14.416;2022-09-01T18:32:58;6.82;;;1.90;;
66609;SDS011;53468;48.276;14.416;2022-09-01T18:38:40;3.33;;;1.20;;
66609;SDS011;53468;48.276;14.416;2022-09-01T18:44:17;2.17;;;1.35;;
66609;SDS011;53468;48.276;14.416;2022-09-01T18:50:04;3.45;;;1.48;;
66609;SDS011;53468;48.276;14.416;2022-09-01T18:55:46;2.92;;;1.67;;
66609;SDS011;53468;48.276;14.416;2022-09-01T19:01:27;5.03;;;1.80;;
66609;SDS011;53468;48.276;14.416;2022-09-01T19:07:07;2.15;;;1.38;;
66609;SDS011;53468;48.276;14.416;2022-09-01T19:12:52;4.90;;;1.77;;
66609;SDS011;53468;48.276;14.416;2022-09-01T19:18:31;2.10;;;1.23;;
66609;SDS011;53468;48.276;14.416;2022-09-01T19:24:12;2.70;;;1.50;;
66609;SDS011;53468;48.276;14.416;2022-09-01T19:29:53;5.20;;;2.67;;
66609;SDS011;53468;48.276;14.416;2022-09-01T19:35:27;6.40;;;1.65;;
66609;SDS011;53468;48.276;14.416;2022-09-01T19:41:08;3.17;;;2.17;;
66609;SDS011;53468;48.276;14.416;2022-09-01T19:46:50;5.45;;;2.25;;
66609;SDS011;53468;48.276;14.416;2022-09-01T19:52:28;2.53;;;2.00;;
66609;SDS011;53468;48.276;14.416;2022-09-01T19:58:04;2.92;;;1.73;;
66609;SDS011;53468;48.276;14.416;2022-09-01T20:03:42;3.50;;;2.45;;
66609;SDS011;53468;48.276;14.416;2022-09-01T20:09:18;5.85;;;2.47;;
66609;SDS011;53468;48.276;14.416;2022-09-01T20:14:58;3.33;;;2.03;;
66609;SDS011;53468;48.276;14.416;2022-09-01T20:20:41;3.65;;;2.45;;
66609;SDS011;53468;48.276;14.416;2022-09-01T20:26:18;3.83;;;1.98;;
66609;SDS011;53468;48.276;14.416;2022-09-01T20:31:54;4.20;;;2.05;;
66609;SDS011;53468;48.276;14.416;2022-09-01T20:37:33;3.40;;;2.00;;
66609;SDS011;53468;48.276;14.416;2022-09-01T20:43:10;3.37;;;2.07;;
66609;SDS011;53468;48.276;14.416;2022-09-01T20:48:51;4.43;;;2.03;;
66609;SDS011;53468;48.276;14.416;2022-09-01T20:54:27;5.55;;;2.75;;
66609;SDS011;53468;48.276;14.416;2022-09-01T21:00:04;3.17;;;2.08;;
66609;SDS011;53468;48.276;14.416;2022-09-01T21:05:42;4.35;;;2.53;;
66609;SDS011;53468;48.276;14.416;2022-09-01T21:11:24;5.30;;;2.35;;
66609;SDS011;53468;48.276;14.416;2022-09-01T21:17:07;4.53;;;2.10;;
66609;SDS011;53468;48.276;14.416;2022-09-01T21:22:44;4.20;;;2.08;;
66609;SDS011;53468;48.276;14.416;2022-09-01T21:28:18;4.65;;;2.40;;
66609;SDS011;53468;48.276;14.416;2022-09-01T21:33:55;5.45;;;1.80;;
66609;SDS011;53468;48.276;14.416;2022-09-01T21:39:27;2.63;;;1.70;;
66609;SDS011;53468;48.276;14.416;2022-09-01T21:45:02;6.38;;;2.00;;
66609;SDS011;53468;48.276;14.416;2022-09-01T21:50:36;2.65;;;1.70;;
66609;SDS011;53468;48.276;14.416;2022-09-01T21:56:09;4.97;;;1.95;;
66609;SDS011;53468;48.276;14.416;2022-09-01T22:01:43;3.20;;;1.45;;
66609;SDS011;53468;48.276;14.416;2022-09-01T22:07:15;6.75;;;1.67;;
66609;SDS011;53468;48.276;14.416;2022-09-01T22:12:50;7.20;;;1.85;;
66609;SDS011;53468;48.276;14.416;2022-09-01T22:18:25;8.13;;;2.00;;
66609;SDS011;53468;48.276;14.416;2022-09-01T22:23:57;4.65;;;1.60;;
66609;SDS011;53468;48.276;14.416;2022-09-01T22:29:29;4.35;;;1.70;;
66609;SDS011;53468;48.276;14.416;2022-09-01T22:35:04;4.30;;;1.73;;
66609;SDS011;53468;48.276;14.416;2022-09-01T22:40:42;2.78;;;1.80;;
66609;SDS011;53468;48.276;14.416;2022-09-01T22:46:15;5.15;;;1.65;;
66609;SDS011;53468;48.276;14.416;2022-09-01T22:51:50;4.25;;;1.33;;
66609;SDS011;53468;48.276;14.416;2022-09-01T22:57:22;4.30;;;1.48;;
66609;SDS011;53468;48.276;14.416;2022-09-01T23:02:55;3.60;;;1.83;;
66609;SDS011;53468;48.276;14.416;2022-09-01T23:08:30;3.95;;;1.50;;
66609;SDS011;53468;48.276;14.416;2022-09-01T23:14:03;2.58;;;1.40;;
66609;SDS011;53468;48.276;14.416;2022-09-01T23:19:35;2.85;;;1.58;;
66609;SDS011;53468;48.276;14.416;2022-09-01T23:25:09;5.82;;;1.85;;
66609;SDS011;53468;48.276;14.416;2022-09-01T23:30:44;11.75;;;1.77;;
66609;SDS011;53468;48.276;14.416;2022-09-01T23:36:20;3.50;;;1.75;;
66609;SDS011;53468;48.276;14.416;2022-09-01T23:41:54;4.57;;;1.70;;
66609;SDS011;53468;48.276;14.416;2022-09-01T23:47:27;2.35;;;1.50;;
66609;SDS011;53468;48.276;14.416;2022-09-01T23:53:00;2.40;;;1.52;;
66609;SDS011;53468;48.276;14.416;2022-09-01T23:58:33;2.50;;;1.63;;
